Time;durP1;ratioP1;P1;durP2;ratioP2;P2;SDS_P1;SDS_P2;PMS_P1;PMS_P2;Temp;Humidity;BMP_temperature;BMP_pressure;BME280_temperature;BME280_humidity;BME280_pressure;Samples;Min_cycle;Max_cycle;Signal;HPM_P1;HPM_P2
2021/06/20 00:01:47;;;;;;;11.30;7.53;;;;;;;20.87;66.29;100116.97;4836398;29;20589;-62
2021/06/20 00:04:13;;;;;;;13.60;7.72;;;;;;;20.84;65.77;100125.09;4852438;29;20494;-62
2021/06/20 00:06:39;;;;;;;13.48;8.07;;;;;;;20.83;65.04;100122.59;4845445;29;20097;-62
2021/06/20 00:09:13;;;;;;;14.10;8.77;;;;;;;20.85;65.02;100112.72;4843289;29;20042;-62
2021/06/20 00:11:40;;;;;;;14.68;8.57;;;;;;;20.84;64.91;100116.31;4853235;29;20417;-63
2021/06/20 00:14:06;;;;;;;10.30;7.65;;;;;;;20.82;66.03;100118.25;4844256;29;20092;-61
2021/06/20 00:16:33;;;;;;;13.18;8.55;;;;;;;20.78;65.72;100114.94;4834681;29;20034;-61
2021/06/20 00:18:59;;;;;;;17.92;9.40;;;;;;;20.77;65.29;100115.06;4850039;29;20045;-63
2021/06/20 00:21:26;;;;;;;13.45;8.68;;;;;;;20.73;65.13;100104.69;4860448;29;20061;-62
2021/06/20 00:23:51;;;;;;;18.00;8.98;;;;;;;20.75;65.28;100117.81;4839615;29;20137;-63
2021/06/20 00:26:17;;;;;;;14.80;8.50;;;;;;;20.73;65.32;100108.31;4835782;29;20160;-62
2021/06/20 00:28:43;;;;;;;12.88;8.38;;;;;;;20.68;66.11;100117.38;4833478;29;20506;-62
2021/06/20 00:31:09;;;;;;;18.58;11.38;;;;;;;20.63;66.33;100106.28;4836403;29;20580;-61
2021/06/20 00:33:35;;;;;;;18.83;10.82;;;;;;;20.61;67.11;100108.22;4835195;29;20421;-62
2021/06/20 00:36:01;;;;;;;27.30;14.68;;;;;;;20.58;67.68;100115.47;5335061;23;20117;-61
2021/06/20 00:38:27;;;;;;;17.05;10.02;;;;;;;20.53;67.13;100110.50;4857695;29;20498;-62
2021/06/20 00:40:52;;;;;;;15.02;9.60;;;;;;;20.54;67.58;100103.44;4852146;29;20077;-63
2021/06/20 00:43:18;;;;;;;17.45;11.70;;;;;;;20.50;67.26;100109.88;4861175;29;20497;-61
2021/06/20 00:45:44;;;;;;;14.30;9.27;;;;;;;20.51;66.64;100111.59;4857424;29;20140;-61
2021/06/20 00:48:10;;;;;;;20.10;12.15;;;;;;;20.51;67.05;100111.59;4853320;29;20045;-61
2021/06/20 00:50:35;;;;;;;16.80;10.38;;;;;;;20.48;67.38;100109.13;4852761;29;20053;-62
2021/06/20 00:53:02;;;;;;;15.85;10.48;;;;;;;20.47;67.72;100118.84;4852961;29;20459;-62
2021/06/20 00:58:23;;;;;;;15.30;9.95;;;;;;;20.41;68.16;100113.97;5130200;23;20049;-62
2021/06/20 01:00:49;;;;;;;15.13;10.55;;;;;;;20.41;68.52;100115.81;4875421;29;20045;-63
2021/06/20 01:03:15;;;;;;;18.25;10.48;;;;;;;20.39;68.84;100112.41;4877052;29;20041;-62
2021/06/20 01:05:45;;;;;;;15.63;10.20;;;;;;;20.37;68.94;100111.66;4879319;29;20548;-62
2021/06/20 01:08:11;;;;;;;18.52;10.30;;;;;;;20.34;68.77;100112.72;4879455;29;20420;-62
2021/06/20 01:10:36;;;;;;;17.75;10.52;;;;;;;20.34;68.44;100120.66;4879073;29;20501;-63
2021/06/20 01:13:04;;;;;;;17.40;10.55;;;;;;;20.35;68.47;100121.50;4878329;29;20041;-62
2021/06/20 01:15:30;;;;;;;16.88;10.45;;;;;;;20.35;68.24;100117.06;4876861;29;20437;-63
2021/06/20 01:17:56;;;;;;;15.07;10.18;;;;;;;20.36;68.49;100121.38;4877114;29;20052;-59
2021/06/20 01:20:22;;;;;;;16.10;10.57;;;;;;;20.36;68.93;100120.56;4873035;29;21724;-62
2021/06/20 01:22:50;;;;;;;20.00;10.43;;;;;;;20.35;68.41;100117.06;4875335;29;20539;-63
2021/06/20 01:25:20;;;;;;;13.93;9.57;;;;;;;20.37;67.88;100124.88;4872767;29;20037;-63
2021/06/20 01:27:52;;;;;;;18.55;9.73;;;;;;;20.37;68.73;100124.88;4876544;29;20052;-63
2021/06/20 01:30:23;;;;;;;17.05;9.73;;;;;;;20.34;69.41;100120.66;4877006;29;20523;-62
2021/06/20 01:32:49;;;;;;;14.55;10.25;;;;;;;20.30;70.07;100127.91;4888017;29;20093;-62
2021/06/20 01:35:15;;;;;;;15.73;10.15;;;;;;;20.23;70.11;100123.97;4879172;29;20041;-61
2021/06/20 01:37:42;;;;;;;15.50;10.15;;;;;;;20.23;70.45;100134.53;4877245;29;20043;-61
2021/06/20 01:40:10;;;;;;;16.27;10.55;;;;;;;20.22;70.73;100134.63;4873519;29;20117;-61
2021/06/20 01:42:37;;;;;;;17.50;10.85;;;;;;;20.21;71.08;100131.16;4873398;29;20051;-61
2021/06/20 01:45:05;;;;;;;14.80;10.07;;;;;;;20.20;71.04;100128.63;4874798;29;20044;-61
2021/06/20 01:47:31;;;;;;;14.27;9.82;;;;;;;20.21;70.94;100135.56;4873329;29;20412;-63
2021/06/20 01:50:02;;;;;;;18.70;9.27;;;;;;;20.23;70.52;100136.34;4874204;29;20048;-61
2021/06/20 01:52:28;;;;;;;14.70;9.00;;;;;;;20.24;69.82;100136.25;4878099;29;20185;-62
2021/06/20 01:54:54;;;;;;;11.50;9.20;;;;;;;20.25;69.35;100132.63;4891433;29;20128;-61
2021/06/20 01:57:27;;;;;;;16.40;8.68;;;;;;;20.28;68.84;100132.44;4877150;29;20057;-62
2021/06/20 01:59:58;;;;;;;14.43;9.02;;;;;;;20.31;68.60;100141.97;4887963;29;20056;-63
2021/06/20 02:02:26;;;;;;;11.45;8.93;;;;;;;20.33;68.60;100145.38;4872590;29;20037;-61
2021/06/20 02:04:52;;;;;;;19.17;10.45;;;;;;;20.34;68.79;100141.78;4876328;29;20116;-63
2021/06/20 02:10:09;;;;;;;17.33;8.80;;;;;;;20.39;69.41;100144.97;4832519;29;20057;-62
2021/06/20 02:12:34;;;;;;;13.63;9.13;;;;;;;20.41;68.93;100135.13;4839041;29;20739;-63
2021/06/20 02:15:00;;;;;;;15.98;9.18;;;;;;;20.44;68.32;100145.50;4840148;29;20274;-62
2021/06/20 02:17:31;;;;;;;11.55;8.82;;;;;;;20.47;69.06;100139.13;4839684;29;20413;-62
2021/06/20 02:20:09;;;;;;;16.42;9.57;;;;;;;20.48;69.17;100132.91;4843738;29;20413;-64
2021/06/20 02:22:35;;;;;;;14.10;8.75;;;;;;;20.49;68.68;100132.81;4838794;29;20042;-62
2021/06/20 02:25:03;;;;;;;15.82;9.18;;;;;;;20.53;68.28;100136.09;4842978;29;20409;-62
2021/06/20 02:27:29;;;;;;;14.20;9.20;;;;;;;20.56;68.84;100138.53;4852389;29;20069;-63
2021/06/20 02:29:56;;;;;;;18.48;9.10;;;;;;;20.57;67.90;100137.56;4841075;29;20080;-62
2021/06/20 02:32:24;;;;;;;17.80;11.75;;;;;;;20.61;67.54;100139.91;4858104;29;20053;-61
2021/06/20 02:34:51;;;;;;;10.73;8.77;;;;;;;20.63;67.40;100143.28;4841232;29;20042;-62
2021/06/20 02:40:10;;;;;;;15.40;8.23;;;;;;;20.68;68.10;100140.31;4831201;29;20518;-62
2021/06/20 02:42:36;;;;;;;12.15;8.88;;;;;;;20.71;67.70;100148.91;4835428;29;20054;-61
2021/06/20 02:45:05;;;;;;;13.10;8.70;;;;;;;20.73;67.71;100148.78;4836295;29;20046;-60
2021/06/20 02:47:31;;;;;;;12.18;8.35;;;;;;;20.76;67.51;100142.44;4837335;29;20525;-64
2021/06/20 02:49:57;;;;;;;14.07;8.02;;;;;;;20.81;67.54;100148.25;4820502;29;20047;-62
2021/06/20 02:52:22;;;;;;;14.27;8.25;;;;;;;20.84;67.47;100148.03;4822675;29;20099;-63
2021/06/20 02:54:51;;;;;;;12.75;8.45;;;;;;;20.88;67.25;100153.03;4822376;29;20038;-62
2021/06/20 02:57:21;;;;;;;13.23;8.13;;;;;;;20.92;67.00;100148.38;4821491;29;20422;-63
2021/06/20 02:59:47;;;;;;;12.20;8.10;;;;;;;20.94;66.73;100149.94;4821110;29;20049;-62
2021/06/20 03:02:13;;;;;;;13.45;7.93;;;;;;;21.00;66.47;100153.94;4821473;29;20047;-61
2021/06/20 03:04:39;;;;;;;12.68;7.75;;;;;;;21.04;66.18;100152.81;4821470;29;20050;-63
2021/06/20 03:07:05;;;;;;;10.25;6.90;;;;;;;21.08;65.79;100160.41;4822126;29;20536;-63
2021/06/20 03:09:32;;;;;;;12.65;8.18;;;;;;;21.13;65.87;100157.44;4822632;29;20049;-63
2021/06/20 03:11:57;;;;;;;12.38;7.00;;;;;;;21.14;65.42;100152.06;4823127;29;20065;-63
2021/06/20 03:14:23;;;;;;;9.90;7.00;;;;;;;21.21;65.12;100149.84;4822013;29;20035;-63
2021/06/20 03:16:49;;;;;;;8.80;6.32;;;;;;;21.24;64.75;100147.00;4822204;29;20050;-62
2021/06/20 03:19:14;;;;;;;11.82;7.00;;;;;;;21.29;64.79;100144.00;5320457;23;21107;-62
2021/06/20 03:21:41;;;;;;;10.32;6.80;;;;;;;21.35;64.39;100151.50;4854415;29;20107;-60
2021/06/20 03:24:07;;;;;;;10.05;5.93;;;;;;;21.38;63.93;100151.28;4853633;29;20766;-60
2021/06/20 03:26:33;;;;;;;12.05;5.70;;;;;;;21.42;63.97;100153.59;4855076;29;20080;-60
2021/06/20 03:28:59;;;;;;;8.75;6.15;;;;;;;21.42;63.68;100140.38;4856964;29;20547;-61
2021/06/20 03:31:26;;;;;;;8.07;5.28;;;;;;;21.45;63.43;100142.81;4854018;29;20584;-61
2021/06/20 03:33:53;;;;;;;10.00;5.35;;;;;;;21.48;63.65;100139.94;4855385;29;20402;-61
2021/06/20 03:36:18;;;;;;;11.20;5.20;;;;;;;21.51;63.61;100145.00;4857717;29;20041;-60
2021/06/20 03:38:45;;;;;;;9.07;5.57;;;;;;;21.56;63.57;100142.03;4858011;29;20049;-62
2021/06/20 03:41:11;;;;;;;9.10;5.18;;;;;;;21.61;63.23;100141.69;4853456;29;20045;-61
2021/06/20 03:43:37;;;;;;;7.72;5.05;;;;;;;21.64;63.08;100130.88;4854362;29;20140;-61
2021/06/20 03:46:04;;;;;;;12.75;5.38;;;;;;;21.67;62.88;100135.97;4855803;29;20042;-62
2021/06/20 03:48:29;;;;;;;7.53;5.15;;;;;;;21.73;63.05;100135.50;4857895;29;20513;-62
2021/06/20 03:50:55;;;;;;;11.18;6.82;;;;;;;21.77;62.98;100140.44;4852433;29;20048;-62
2021/06/20 03:53:21;;;;;;;7.60;5.38;;;;;;;21.79;63.09;100138.53;4856871;29;20050;-61
2021/06/20 03:55:46;;;;;;;7.00;4.68;;;;;;;21.85;62.81;100139.91;4856073;29;20527;-62
2021/06/20 03:58:12;;;;;;;7.72;4.88;;;;;;;21.90;62.80;100135.94;4857843;29;20084;-61
2021/06/20 04:00:38;;;;;;;5.13;4.13;;;;;;;21.96;61.61;100130.25;4855016;29;20135;-61
2021/06/20 04:03:04;;;;;;;7.32;4.78;;;;;;;22.03;61.59;100140.38;4853060;29;20536;-60
2021/06/20 04:05:30;;;;;;;8.07;4.93;;;;;;;22.11;61.66;100145.94;4853084;29;20064;-62
2021/06/20 04:07:56;;;;;;;10.15;5.25;;;;;;;22.16;61.51;100138.50;4854224;29;20112;-60
2021/06/20 04:10:22;;;;;;;8.52;5.18;;;;;;;22.20;61.72;100145.25;5319549;23;20058;-62
2021/06/20 04:12:48;;;;;;;6.15;4.57;;;;;;;22.25;61.79;100145.75;4856911;29;20398;-59
2021/06/20 04:15:14;;;;;;;7.90;4.82;;;;;;;22.30;61.56;100133.84;4857540;29;20056;-62
2021/06/20 04:17:40;;;;;;;8.40;5.05;;;;;;;22.34;61.74;100137.97;4858752;29;20045;-60
2021/06/20 04:20:07;;;;;;;8.77;4.38;;;;;;;22.39;61.28;100141.13;4857677;29;20052;-60
2021/06/20 04:22:34;;;;;;;7.10;4.70;;;;;;;22.44;61.04;100132.81;4854386;29;20049;-64
2021/06/20 04:25:00;;;;;;;5.82;4.68;;;;;;;22.48;60.96;100125.47;4853897;29;20140;-62
2021/06/20 04:27:26;;;;;;;6.82;4.10;;;;;;;22.52;60.57;100122.44;4852310;29;20045;-62
2021/06/20 04:29:51;;;;;;;8.77;4.22;;;;;;;22.55;59.85;100130.19;4853780;29;20394;-61
2021/06/20 04:32:17;;;;;;;6.88;4.55;;;;;;;22.60;59.92;100130.69;4859324;29;20469;-62
2021/06/20 04:34:43;;;;;;;5.53;3.10;;;;;;;22.68;57.60;100124.75;4856097;29;20048;-62
2021/06/20 04:37:08;;;;;;;5.57;3.22;;;;;;;22.72;58.00;100129.75;4857109;29;20045;-61
2021/06/20 04:39:34;;;;;;;4.57;3.20;;;;;;;22.78;56.73;100131.91;4857128;29;20178;-62
2021/06/20 04:42:00;;;;;;;4.18;3.15;;;;;;;22.85;56.21;100131.44;4857112;29;20064;-63
2021/06/20 04:47:19;;;;;;;4.68;2.80;;;;;;;22.97;55.80;100130.50;4857743;29;20053;-62
2021/06/20 04:49:45;;;;;;;5.05;2.70;;;;;;;23.02;55.77;100125.69;4856237;29;20048;-62
2021/06/20 04:52:12;;;;;;;5.70;2.60;;;;;;;23.07;55.82;100123.50;4856344;29;20045;-62
2021/06/20 04:54:49;;;;;;;5.95;2.95;;;;;;;23.12;56.14;100130.13;4856812;29;20421;-63
2021/06/20 04:57:29;;;;;;;6.90;2.80;;;;;;;23.20;55.65;100122.41;4855294;29;20041;-64
2021/06/20 05:00:02;;;;;;;5.25;2.85;;;;;;;23.28;55.29;100126.25;4857388;29;20044;-64
2021/06/20 05:02:28;;;;;;;4.63;2.58;;;;;;;23.34;55.38;100129.28;4855832;29;20062;-63
2021/06/20 05:04:55;;;;;;;3.00;2.28;;;;;;;23.38;55.03;100122.75;4853388;29;20050;-62
2021/06/20 05:07:20;;;;;;;5.85;2.33;;;;;;;23.42;54.44;100123.34;4850823;29;20591;-61
2021/06/20 05:09:47;;;;;;;3.97;2.58;;;;;;;23.49;54.52;100125.41;4856619;29;20128;-62
2021/06/20 05:12:14;;;;;;;6.10;2.65;;;;;;;23.55;54.99;100119.59;4853360;29;20092;-63
2021/06/20 05:14:46;;;;;;;4.90;2.70;;;;;;;23.64;54.37;100126.81;4853242;29;20042;-63
2021/06/20 05:17:13;;;;;;;4.60;2.67;;;;;;;23.72;54.62;100131.50;4856339;29;20055;-63
2021/06/20 05:19:39;;;;;;;6.93;2.88;;;;;;;23.79;54.16;100126.53;4869769;29;20069;-61
2021/06/20 05:22:04;;;;;;;4.25;2.80;;;;;;;23.84;54.31;100127.84;4853032;29;20101;-60
2021/06/20 05:24:30;;;;;;;5.38;2.58;;;;;;;23.92;54.05;100128.03;4851787;29;20045;-61
2021/06/20 05:26:56;;;;;;;2.60;2.40;;;;;;;24.00;53.93;100130.94;4856623;29;20085;-61
2021/06/20 05:29:22;;;;;;;5.57;2.55;;;;;;;24.04;53.60;100129.69;4857313;29;20103;-62
2021/06/20 05:31:48;;;;;;;3.00;2.60;;;;;;;24.10;53.62;100125.69;4854837;29;20097;-61
2021/06/20 05:34:13;;;;;;;2.88;2.55;;;;;;;24.20;53.51;100125.78;4853142;29;20049;-61
2021/06/20 05:36:39;;;;;;;3.78;2.65;;;;;;;24.29;53.51;100130.31;4852073;29;20064;-61
2021/06/20 05:39:05;;;;;;;4.50;2.55;;;;;;;24.38;54.17;100126.91;4852277;29;20052;-60
2021/06/20 05:41:31;;;;;;;7.13;2.45;;;;;;;24.48;53.79;100130.47;5319025;23;20593;-61
2021/06/20 05:43:57;;;;;;;6.85;2.28;;;;;;;24.56;51.88;100125.34;4827428;29;20057;-61
2021/06/20 05:46:23;;;;;;;2.72;2.38;;;;;;;24.59;51.54;100124.25;4866847;29;20041;-62
2021/06/20 05:48:49;;;;;;;3.30;2.30;;;;;;;24.63;51.76;100120.34;4858990;29;20053;-62
2021/06/20 05:51:15;;;;;;;4.35;2.22;;;;;;;24.72;51.21;100130.19;4858702;29;20394;-61
2021/06/20 05:53:41;;;;;;;3.38;2.20;;;;;;;24.80;52.20;100119.75;4870732;29;20140;-62
2021/06/20 05:56:07;;;;;;;3.97;2.60;;;;;;;24.89;51.90;100122.47;4842205;29;20141;-62
2021/06/20 05:58:33;;;;;;;3.53;2.92;;;;;;;24.91;50.87;100124.16;4823053;29;20050;-60
2021/06/20 06:00:59;;;;;;;2.55;2.03;;;;;;;24.98;51.02;100122.63;4823314;29;20046;-58
2021/06/20 06:03:25;;;;;;;4.93;2.17;;;;;;;25.08;50.64;100113.72;4804403;29;20066;-57
2021/06/20 06:05:50;;;;;;;4.80;2.22;;;;;;;25.20;51.39;100119.78;4851041;29;20502;-59
2021/06/20 06:08:16;;;;;;;4.72;1.70;;;;;;;25.27;49.23;100119.13;4842307;29;20050;-58
2021/06/20 06:10:42;;;;;;;5.90;2.10;;;;;;;25.31;49.53;100123.19;4841067;29;20392;-58
2021/06/20 06:13:07;;;;;;;2.20;2.00;;;;;;;25.37;49.02;100121.81;4840979;29;20134;-60
2021/06/20 06:15:33;;;;;;;3.30;2.10;;;;;;;25.40;49.58;100126.84;4841855;29;20113;-59
2021/06/20 06:17:59;;;;;;;3.70;2.53;;;;;;;25.51;50.05;100125.91;4841456;29;20046;-60
2021/06/20 06:20:25;;;;;;;4.63;2.38;;;;;;;25.60;49.25;100122.44;4841531;29;20050;-59
2021/06/20 06:22:51;;;;;;;5.05;2.10;;;;;;;25.66;49.38;100121.88;4841077;29;20081;-60
2021/06/20 06:25:17;;;;;;;4.40;2.10;;;;;;;25.77;49.87;100126.25;4839577;29;20070;-61
2021/06/20 06:27:44;;;;;;;5.07;2.70;;;;;;;25.90;49.50;100118.84;4840692;29;20049;-58
2021/06/20 06:30:10;;;;;;;3.05;2.40;;;;;;;26.02;49.36;100118.53;4841612;29;20038;-60
2021/06/20 06:32:37;;;;;;;3.47;2.03;;;;;;;26.08;47.55;100122.47;4847536;29;20120;-59
2021/06/20 06:35:03;;;;;;;3.53;2.20;;;;;;;26.14;48.12;100120.09;4854375;29;20046;-59
2021/06/20 06:37:29;;;;;;;4.20;2.75;;;;;;;26.22;47.97;100116.78;4838872;29;20085;-62
2021/06/20 06:39:54;;;;;;;5.22;2.53;;;;;;;26.39;48.17;100125.84;4842394;29;20055;-60
2021/06/20 06:42:25;;;;;;;6.40;2.63;;;;;;;26.71;47.39;100113.00;4846025;29;20058;-61
2021/06/20 06:44:55;;;;;;;4.35;2.65;;;;;;;27.36;46.32;100128.06;4841061;29;20050;-61
2021/06/20 06:47:21;;;;;;;3.80;2.90;;;;;;;28.04;44.29;100130.31;4848710;29;20114;-63
2021/06/20 06:49:48;;;;;;;3.13;2.72;;;;;;;28.78;43.33;100125.41;4856157;29;20476;-63
2021/06/20 06:52:13;;;;;;;3.75;2.95;;;;;;;29.57;41.01;100125.09;4849808;29;20049;-66
2021/06/20 06:54:39;;;;;;;6.80;3.30;;;;;;;30.21;39.95;100124.34;4848767;29;20497;-62
2021/06/20 06:57:05;;;;;;;8.07;3.08;;;;;;;30.95;38.65;100117.88;4855300;29;20136;-62
2021/06/20 06:59:31;;;;;;;6.03;3.45;;;;;;;31.49;37.48;100129.63;4849165;29;20463;-62
2021/06/20 07:01:57;;;;;;;5.57;3.10;;;;;;;32.21;36.01;100126.66;4843837;29;20136;-61
2021/06/20 07:04:23;;;;;;;4.00;3.33;;;;;;;32.95;35.04;100116.84;4836193;29;20037;-63
2021/06/20 07:06:49;;;;;;;6.32;3.42;;;;;;;33.88;34.24;100117.81;4836193;29;20089;-64
2021/06/20 07:09:15;;;;;;;7.85;3.45;;;;;;;34.92;32.52;100116.19;4835893;29;20049;-62
2021/06/20 07:11:41;;;;;;;7.78;3.90;;;;;;;35.33;31.68;100121.59;4835618;29;20048;-62
2021/06/20 07:14:07;;;;;;;6.03;3.90;;;;;;;35.61;31.08;100119.63;4840098;29;20065;-62
2021/06/20 07:16:33;;;;;;;6.90;3.38;;;;;;;36.26;29.94;100123.56;4839201;29;20837;-63
2021/06/20 07:18:58;;;;;;;7.15;3.90;;;;;;;36.37;30.02;100122.09;4839452;29;20049;-63
2021/06/20 07:21:24;;;;;;;5.57;3.35;;;;;;;36.58;29.79;100118.31;4838402;29;20102;-65
2021/06/20 07:23:50;;;;;;;4.13;3.42;;;;;;;37.05;28.65;100114.47;4833771;29;20597;-64
2021/06/20 07:26:16;;;;;;;5.07;3.60;;;;;;;37.65;27.73;100121.34;4835601;29;20068;-61
2021/06/20 07:28:41;;;;;;;5.50;3.20;;;;;;;38.47;27.47;100125.81;4834955;29;20049;-61
2021/06/20 07:31:07;;;;;;;8.95;4.07;;;;;;;38.87;26.42;100128.97;4835266;29;20041;-61
2021/06/20 07:33:33;;;;;;;6.20;3.90;;;;;;;39.16;26.71;100116.50;4834798;29;20095;-61
2021/06/20 07:36:00;;;;;;;6.25;3.85;;;;;;;38.92;26.46;100112.81;4835866;29;20057;-59
2021/06/20 07:38:25;;;;;;;4.47;3.57;;;;;;;39.29;26.78;100111.75;4848567;29;20407;-64
2021/06/20 07:40:51;;;;;;;4.13;3.35;;;;;;;40.28;25.41;100117.69;4835551;29;20098;-62
2021/06/20 07:43:21;;;;;;;7.80;3.88;;;;;;;40.88;24.69;100116.38;4835914;29;20414;-61
2021/06/20 07:45:46;;;;;;;3.95;3.30;;;;;;;41.22;23.66;100116.56;4835587;29;20048;-61
2021/06/20 07:48:15;;;;;;;7.35;3.65;;;;;;;41.24;23.53;100119.91;4834948;29;20516;-61
2021/06/20 07:50:41;;;;;;;7.38;4.97;;;;;;;41.97;23.05;100113.66;4835425;29;20046;-61
2021/06/20 07:53:07;;;;;;;6.15;3.33;;;;;;;41.83;22.99;100124.88;4838734;29;20094;-63
2021/06/20 07:55:35;;;;;;;5.15;3.30;;;;;;;41.12;23.02;100119.09;4838783;29;20069;-58
2021/06/20 07:58:01;;;;;;;5.03;3.50;;;;;;;41.04;22.87;100126.56;4838766;29;20498;-63
2021/06/20 08:00:27;;;;;;;5.55;3.33;;;;;;;41.25;23.16;100110.63;4839352;29;20052;-62
2021/06/20 08:02:52;;;;;;;5.78;3.33;;;;;;;41.92;22.26;100111.69;4848603;29;20576;-60
2021/06/20 08:05:18;;;;;;;5.80;3.72;;;;;;;42.40;22.26;100113.03;4856329;29;20057;-59
2021/06/20 08:07:44;;;;;;;3.83;2.83;;;;;;;43.02;20.98;100114.50;4853820;29;20065;-65
2021/06/20 08:10:10;;;;;;;7.30;3.10;;;;;;;43.12;21.30;100111.09;4855140;29;20052;-65
2021/06/20 08:12:36;;;;;;;3.97;3.55;;;;;;;43.61;20.81;100113.81;4856054;29;20179;-64
2021/06/20 08:15:02;;;;;;;3.55;3.20;;;;;;;42.92;20.84;100111.59;4856963;29;20123;-64
2021/06/20 08:17:28;;;;;;;3.50;3.20;;;;;;;42.09;21.37;100107.03;4863514;29;20153;-62
2021/06/20 08:19:54;;;;;;;3.53;3.22;;;;;;;41.45;22.06;100116.50;4869807;29;20046;-63
2021/06/20 08:22:20;;;;;;;3.75;3.40;;;;;;;41.41;22.77;100107.94;4851349;29;20041;-59
2021/06/20 08:24:46;;;;;;;8.40;3.72;;;;;;;41.63;21.87;100108.13;4854858;29;20441;-65
2021/06/20 08:27:13;;;;;;;4.43;3.50;;;;;;;42.55;21.29;100103.16;4855142;29;20540;-67
2021/06/20 08:29:38;;;;;;;4.47;3.85;;;;;;;43.05;21.11;100097.53;4852812;29;20076;-63
2021/06/20 08:32:05;;;;;;;5.90;4.00;;;;;;;43.88;21.07;100096.31;4852406;29;20491;-65
2021/06/20 08:34:31;;;;;;;6.32;4.28;;;;;;;44.59;20.65;100101.53;4869901;29;20042;-64
2021/06/20 08:37:01;;;;;;;6.47;4.55;;;;;;;43.81;20.47;100103.09;4850895;29;20139;-60
2021/06/20 08:39:28;;;;;;;4.43;4.13;;;;;;;43.16;20.89;100098.53;4865640;29;20053;-64
2021/06/20 08:41:54;;;;;;;7.15;3.72;;;;;;;43.29;20.70;100098.13;4851074;29;20157;-60
2021/06/20 08:44:23;;;;;;;4.45;4.10;;;;;;;43.57;20.34;100099.81;4851079;29;20470;-64
2021/06/20 08:46:49;;;;;;;5.82;4.93;;;;;;;43.84;20.52;100094.31;4854800;29;20068;-61
2021/06/20 08:49:15;;;;;;;8.05;4.50;;;;;;;43.81;20.73;100092.91;4844935;29;20054;-63
2021/06/20 08:51:44;;;;;;;6.60;4.28;;;;;;;43.47;20.11;100088.72;4844047;29;20164;-60
2021/06/20 08:54:10;;;;;;;4.90;4.43;;;;;;;43.69;20.11;100089.53;4842096;29;20103;-59
2021/06/20 08:56:36;;;;;;;6.50;5.00;;;;;;;44.47;20.07;100093.50;4855961;29;20053;-58
2021/06/20 08:59:04;;;;;;;5.15;4.70;;;;;;;44.98;18.86;100091.03;4843334;29;20049;-59
2021/06/20 09:01:32;;;;;;;7.82;7.03;;;;;;;45.02;19.12;100090.22;4842172;29;20046;-57
2021/06/20 09:03:57;;;;;;;6.70;6.00;;;;;;;45.51;18.77;100085.19;4848683;29;20042;-58
2021/06/20 09:06:24;;;;;;;6.45;4.88;;;;;;;45.57;19.03;100088.78;4842371;29;20046;-56
2021/06/20 09:09:01;;;;;;;7.40;5.43;;;;;;;45.49;18.88;100076.41;4840160;29;20049;-56
2021/06/20 09:11:33;;;;;;;7.03;5.20;;;;;;;45.25;18.79;100077.97;4840605;29;20054;-58
2021/06/20 09:14:09;;;;;;;8.85;4.97;;;;;;;44.67;18.96;100081.84;4843896;29;20129;-57
2021/06/20 09:16:44;;;;;;;5.22;4.68;;;;;;;43.81;19.64;100070.19;4842798;29;20514;-59
2021/06/20 09:19:10;;;;;;;4.85;4.43;;;;;;;43.92;19.64;100066.47;4842667;29;20138;-58
2021/06/20 09:21:36;;;;;;;5.60;4.32;;;;;;;43.36;20.30;100065.91;4841444;29;20533;-60
2021/06/20 09:24:02;;;;;;;6.00;4.68;;;;;;;43.92;19.95;100066.47;4850861;29;20049;-59
2021/06/20 09:26:37;;;;;;;5.88;4.50;;;;;;;43.78;19.54;100057.84;4852050;29;20045;-59
2021/06/20 09:29:04;;;;;;;8.93;4.95;;;;;;;43.54;19.71;100053.78;4860716;29;20098;-58
2021/06/20 09:34:25;;;;;;;6.75;4.65;;;;;;;44.43;18.94;100053.97;4921205;23;20058;-58
2021/06/20 09:37:01;;;;;;;6.03;4.85;;;;;;;43.82;19.19;100038.94;4856482;29;20037;-58
2021/06/20 09:39:27;;;;;;;5.07;4.57;;;;;;;44.75;19.10;100045.66;4854118;29;20084;-58
2021/06/20 09:42:00;;;;;;;9.65;4.63;;;;;;;44.85;18.64;100033.91;4852914;29;20041;-58
2021/06/20 09:44:39;;;;;;;5.78;4.82;;;;;;;45.17;18.50;100037.31;4862688;29;20057;-58
2021/06/20 09:47:11;;;;;;;6.28;5.00;;;;;;;44.90;19.21;100037.47;4855745;29;20088;-58
2021/06/20 09:49:37;;;;;;;5.97;5.47;;;;;;;44.90;18.73;100034.75;4858095;29;20053;-60
2021/06/20 09:52:03;;;;;;;5.32;4.82;;;;;;;44.30;19.50;100027.84;4870849;29;20136;-60
2021/06/20 09:54:32;;;;;;;9.80;4.82;;;;;;;44.44;19.58;100027.38;4878686;29;20052;-59
2021/06/20 09:56:59;;;;;;;5.63;5.10;;;;;;;45.37;19.08;100036.53;4863903;29;20049;-59
2021/06/20 09:59:33;;;;;;;7.32;6.05;;;;;;;46.31;18.82;100028.59;4862708;29;20098;-60
2021/06/20 10:02:11;;;;;;;7.32;5.15;;;;;;;46.11;17.48;100023.09;4874127;29;20089;-60
2021/06/20 10:04:40;;;;;;;7.80;4.80;;;;;;;45.87;17.83;100020.09;4861200;29;20052;-60
2021/06/20 10:07:09;;;;;;;6.65;5.15;;;;;;;45.13;18.11;100019.72;4866685;29;20056;-59
2021/06/20 10:09:37;;;;;;;5.10;4.70;;;;;;;44.84;18.41;100013.84;4870700;29;20522;-59
2021/06/20 10:12:04;;;;;;;5.47;4.55;;;;;;;44.92;18.20;100009.75;4862608;29;20189;-59
2021/06/20 10:14:31;;;;;;;7.85;5.30;;;;;;;45.84;17.75;100017.91;4863904;29;20105;-60
2021/06/20 10:17:02;;;;;;;5.93;5.13;;;;;;;46.43;17.04;100010.94;4856095;29;20037;-58
2021/06/20 10:19:29;;;;;;;5.93;5.30;;;;;;;46.88;17.03;100002.50;4855584;29;20073;-60
2021/06/20 10:22:07;;;;;;;7.22;5.60;;;;;;;47.04;16.75;100012.38;4853827;29;20041;-61
2021/06/20 10:24:52;;;;;;;6.10;5.50;;;;;;;47.11;16.96;100001.03;4862686;29;20076;-60
2021/06/20 10:28:00;;;;;;;5.82;5.25;;;;;;;46.72;17.20;99996.25;4854588;29;20053;-59
2021/06/20 10:30:26;;;;;;;7.90;7.10;;;;;;;46.77;17.42;100001.75;4833366;29;20064;-59
2021/06/20 10:35:59;;;;;;;6.88;6.28;;;;;;;46.46;17.26;99989.19;4854470;29;20050;-59
2021/06/20 10:38:37;;;;;;;8.45;6.90;;;;;;;46.91;17.58;99990.94;4859387;29;20124;-60
2021/06/20 10:41:03;;;;;;;6.00;5.50;;;;;;;46.26;17.28;99986.50;4858320;29;20068;-59
2021/06/20 10:43:29;;;;;;;6.43;5.27;;;;;;;46.11;17.54;99984.59;4859556;29;20387;-59
2021/06/20 10:45:55;;;;;;;6.03;5.43;;;;;;;45.77;17.69;99981.59;4859183;29;20060;-60
2021/06/20 10:48:29;;;;;;;5.85;5.28;;;;;;;45.88;17.61;99976.94;4858961;29;20041;-59
2021/06/20 10:50:57;;;;;;;7.35;5.45;;;;;;;45.71;17.17;99965.38;4859033;29;20135;-60
2021/06/20 10:53:26;;;;;;;6.72;5.10;;;;;;;46.15;17.25;99971.94;4859515;29;20045;-59
2021/06/20 10:55:54;;;;;;;7.63;5.40;;;;;;;46.55;17.10;99975.69;4856002;29;20049;-59
2021/06/20 10:58:31;;;;;;;6.30;5.72;;;;;;;46.30;17.21;99965.59;4858582;29;20140;-59
2021/06/20 11:01:13;;;;;;;9.13;5.95;;;;;;;45.93;17.65;99954.94;4858539;29;20046;-60
2021/06/20 11:03:40;;;;;;;6.10;5.68;;;;;;;45.99;17.30;99961.25;4857913;29;20130;-59
2021/06/20 11:06:09;;;;;;;5.78;5.32;;;;;;;45.90;17.73;99958.25;4859037;29;20110;-59
2021/06/20 11:08:54;;;;;;;7.13;5.50;;;;;;;45.95;17.55;99966.50;4858476;29;20049;-60
2021/06/20 11:11:34;;;;;;;5.50;5.10;;;;;;;45.04;18.12;99963.69;4858716;29;20045;-59
2021/06/20 11:14:06;;;;;;;8.85;5.40;;;;;;;45.13;17.61;99967.53;4858509;29;20080;-61
2021/06/20 11:16:36;;;;;;;6.22;5.40;;;;;;;45.08;17.58;99960.13;4854649;29;20041;-61
2021/06/20 11:19:07;;;;;;;6.53;5.93;;;;;;;45.83;17.68;99955.78;4854452;29;20052;-60
2021/06/20 11:21:35;;;;;;;6.35;5.68;;;;;;;45.50;17.41;99945.34;4854183;29;20557;-59
2021/06/20 11:24:04;;;;;;;6.07;5.43;;;;;;;45.32;17.55;99943.13;4855298;29;20514;-61
2021/06/20 11:26:30;;;;;;;6.73;5.40;;;;;;;45.01;17.85;99942.25;4854733;29;20117;-60
2021/06/20 11:29:05;;;;;;;5.50;5.00;;;;;;;45.50;18.09;99940.69;4854835;29;20424;-60
2021/06/20 11:31:31;;;;;;;6.93;5.90;;;;;;;45.89;18.03;99935.44;4857336;29;20045;-61
2021/06/20 11:33:57;;;;;;;6.68;6.10;;;;;;;46.17;17.82;99942.25;4855544;29;20064;-60
2021/06/20 11:36:25;;;;;;;6.33;5.57;;;;;;;46.26;17.11;99937.84;4853908;29;20041;-59
2021/06/20 11:38:51;;;;;;;6.50;5.90;;;;;;;45.52;17.22;99934.91;4856582;29;20048;-59
2021/06/20 11:41:23;;;;;;;6.78;5.13;;;;;;;44.86;17.66;99934.78;4857929;29;20454;-59